24h
KLIENDITUGI:
Saartelennuliinid: +372 58856336 (24/7)
Estairi piletikassa lennujaamas:
+372 6058887; +372 55603687

01.11.2018 õhtune Transaviabaltika lend KTB676 Tallinn - Kärdla ja KTB677 Kärdla – Tallinn väljalend jääb ära. Lennu ära jäämise põhjustab madalad pilved Kärdla lennuvälja kohal. Reisijatele võimaldatakse tasuta lennupileti ümberbroneerimine reisija soovi kohasele mõnele teisele Tallinn-Kärdla või Kärdla-Tallinn lennule. Reisijatele kes ei soovi lennupileti ümberbroneerimist teisele lennule tagastatakse piletiraha. Oma soovist tuleb teada anda e-mailile [email protected] Lisainformatsioon telefonil 58856336.

EEKA Kärdla lennuväli

FCEO32 EETN 011300 TAF EEKA 011300Z 0114/0120 13008KT 9999 SCT030 PROB40

TEMPO 0114/0116 2000 BR BKN005 TEMPO 0116/0119 0800 BCFG BKN003=

METAR EEKA 011350Z 15008KT 9999 BKN003 07/07 Q1026=

Kuupäev: 
01/11/2018